메인 페이지
METAR-TAF:

METAR-TAF

공항 :

싱가포르 창이 국제공항

싱가포르, 싱가포르

위도: 01-22N, 경도: 103-59E, 고도: 5m

현재 날씨관측

예보는 23분 전, 20:30시(UTC)에 발표되었습니다.
6kt
온도 28°C
습도 84%
기압 1008 hPa
시정 10km 이상
고도 1800ft 상공 구름 조금
고도 15000ft 상공 구름 보통
고도 30000ft 상공 구름 많음

METAR: WSSS 202030Z 18006KT 9999 FEW018 SCT150 BKN300 28/25 Q1008 NOSIG

시각: 04:53 (20:53 UTC)

예보

예보는 3 시간 53분 전, 17:00시(UTC)에 발표되었습니다.
예보 대상 시간: 20일 18시부터 22일 00시까지 (UTC)
10kt
시정 10km 이상
고도 1500ft 상공 구름 조금
고도 2000ft 상공 구름 보통
일시적
21일 02시부터 21일 06시까지 (UTC)
시정: 3000m
고도 1200ft 상공 구름 조금, 적란운.
고도 1500ft 상공 구름 많음
뇌우, 비

TAF: WSSS 201700Z 2018/2200 18010KT 9999 FEW015 SCT020 TEMPO 2102/2106 3000 TSRA FEW012CB BKN015

4,000개 이상의 공항 관측 자료 및 예보 (METAR 및 TAF 보고).

지도상에서 검색 가능한 기상관측소가 노란 점과 빨간 점으로 표시되어 있습니다.

기상관측소 명을 보려면 표시 위로 마우스를 이동하세요.

날씨 관측과 예보를 보려면 클릭하세요.

지도 변경 : 확대하려면 엑스 표시가 있는 녹색 버튼, 축소하려면 빼기 표시가 있는 녹색 버튼, 다음 페이지의 지도를 보려면 녹색 화살표를 클릭하세요.


METAR-TAF: